< < Back
Terminal Aerodrome Forecast


Current Version              Previous Versions:   1  2  3  4  5  6  7  8  9  

Terminal Aerodrome Forecast

959
FTUS44 KBMX 271725
TAFBHM
TAF
KBHM 271725Z 2718/2818 33012G20KT P6SM FEW030
     FM272100 33010KT P6SM VCSH BKN035
     FM280300 34006KT P6SM BKN100=

Latest METAR

588
SAUS70 KWBC 281200
MTRBHM
METAR KBHM 281153Z 36006KT 10SM FEW100 01/M03 A3020 RMK AO2 SLP228 70008
T00061028 10039 20006 53022


USA.gov is the U.S. government's official web portal to all federal, state and local government web resources and services.